Time;durP1;ratioP1;P1;durP2;ratioP2;P2;SDS_P1;SDS_P2;PMS_P1;PMS_P2;Temp;Humidity;BMP_temperature;BMP_pressure;BME280_temperature;BME280_humidity;BME280_pressure;Samples;Min_cycle;Max_cycle;Signal;HPM_P1;HPM_P2
2022/11/22 00:00:15;;;;;;;4.40;1.05;;;16.50;70.90;;;;;;6181604;23;46994;-69
2022/11/22 00:02:42;;;;;;;2.83;0.80;;;16.20;71.50;;;;;;6181571;23;45355;-69
2022/11/22 00:05:09;;;;;;;4.57;0.95;;;15.90;72.50;;;;;;6182324;23;45386;-68
2022/11/22 00:07:36;;;;;;;2.85;1.17;;;15.80;73.10;;;;;;6181758;22;45286;-69
2022/11/22 00:10:03;;;;;;;3.17;1.13;;;15.70;72.90;;;;;;6176984;23;47970;-69
2022/11/22 00:12:31;;;;;;;4.10;1.17;;;15.70;73.70;;;;;;6181202;23;45288;-69
2022/11/22 00:14:58;;;;;;;4.57;1.48;;;15.60;74.00;;;;;;6180952;23;45569;-71
2022/11/22 00:17:25;;;;;;;2.85;1.02;;;15.90;73.70;;;;;;6181148;23;45232;-70
2022/11/22 00:19:52;;;;;;;2.63;1.02;;;15.70;73.30;;;;;;6182815;23;45355;-68
2022/11/22 00:22:18;;;;;;;5.13;1.08;;;15.80;73.10;;;;;;6182290;23;45181;-69
2022/11/22 00:24:46;;;;;;;2.72;1.02;;;15.50;74.30;;;;;;6183019;23;45260;-69
2022/11/22 00:27:12;;;;;;;3.33;1.00;;;15.40;74.30;;;;;;6181179;23;45288;-69
2022/11/22 00:29:41;;;;;;;3.22;1.05;;;15.50;72.90;;;;;;6182766;23;48050;-68
2022/11/22 00:32:07;;;;;;;3.95;0.85;;;15.30;74.20;;;;;;6182226;23;45351;-68
2022/11/22 00:34:34;;;;;;;5.00;1.05;;;15.20;74.30;;;;;;6185961;23;45215;-69
2022/11/22 00:37:01;;;;;;;2.70;1.00;;;15.20;74.00;;;;;;6182604;23;45294;-70
2022/11/22 00:39:28;;;;;;;5.03;1.05;;;15.10;74.30;;;;;;6181486;23;46441;-69
2022/11/22 00:41:55;;;;;;;2.55;0.95;;;15.10;75.60;;;;;;6182792;23;45349;-69
2022/11/22 00:44:22;;;;;;;3.45;1.10;;;15.20;74.80;;;;;;6182573;23;45529;-69
2022/11/22 00:46:50;;;;;;;4.07;1.10;;;15.10;74.80;;;;;;6182930;23;45360;-68
2022/11/22 00:49:16;;;;;;;2.28;0.93;;;15.20;74.90;;;;;;6180390;23;46329;-70
2022/11/22 00:51:43;;;;;;;4.95;1.67;;;15.10;74.70;;;;;;6182803;23;45224;-68
2022/11/22 00:54:10;;;;;;;3.53;1.00;;;15.20;74.30;;;;;;6183085;23;45224;-69
2022/11/22 00:56:37;;;;;;;5.20;1.08;;;15.20;74.70;;;;;;6182288;23;45348;-68
2022/11/22 00:59:04;;;;;;;5.07;1.10;;;15.30;74.20;;;;;;6181908;23;47193;-69
2022/11/22 01:01:31;;;;;;;2.85;1.00;;;15.10;74.80;;;;;;6182006;23;45161;-69
2022/11/22 01:03:59;;;;;;;3.50;1.20;;;14.90;75.40;;;;;;6183174;23;45203;-68
2022/11/22 01:06:26;;;;;;;4.43;0.80;;;14.90;75.80;;;;;;6182179;23;45370;-70
2022/11/22 01:08:53;;;;;;;2.97;1.10;;;15.20;75.70;;;;;;6180284;23;48649;-69
2022/11/22 01:11:20;;;;;;;3.80;0.90;;;15.00;75.40;;;;;;6182211;23;45324;-68
2022/11/22 01:13:47;;;;;;;3.15;1.23;;;15.00;75.10;;;;;;6182312;23;45317;-68
2022/11/22 01:16:14;;;;;;;4.97;0.98;;;15.10;75.70;;;;;;6183247;23;45264;-68
2022/11/22 01:18:41;;;;;;;3.83;1.00;;;15.00;75.90;;;;;;6181203;23;45382;-68
2022/11/22 01:21:09;;;;;;;3.58;0.75;;;15.10;74.30;;;;;;6182150;23;45291;-68
2022/11/22 01:23:37;;;;;;;3.42;0.80;;;14.90;75.60;;;;;;6182856;23;45248;-69
2022/11/22 01:26:06;;;;;;;6.65;1.20;;;14.80;76.60;;;;;;6182033;23;45463;-69
2022/11/22 01:28:33;;;;;;;1.90;0.77;;;15.10;76.10;;;;;;6181915;23;46576;-69
2022/11/22 01:31:00;;;;;;;2.33;0.93;;;15.20;74.00;;;;;;6181708;23;45276;-68
2022/11/22 01:33:28;;;;;;;1.75;0.75;;;15.00;75.30;;;;;;6181932;23;45385;-69
2022/11/22 01:35:57;;;;;;;2.30;0.77;;;15.20;74.00;;;;;;6181815;23;45447;-69
2022/11/22 01:38:25;;;;;;;1.40;0.55;;;15.00;75.20;;;;;;6181592;23;47498;-69
2022/11/22 01:40:52;;;;;;;2.75;0.85;;;14.70;76.60;;;;;;6182216;23;45181;-68
2022/11/22 01:43:20;;;;;;;3.00;0.80;;;14.90;75.60;;;;;;6182226;23;45340;-68
2022/11/22 01:45:54;;;;;;;1.50;0.70;;;15.20;74.90;;;;;;6182741;23;45318;-69
2022/11/22 01:48:31;;;;;;;3.50;0.70;;;15.30;74.10;;;;;;6179604;23;46423;-69
2022/11/22 01:51:02;;;;;;;4.15;0.70;;;14.90;74.10;;;;;;6182537;23;45720;-68
2022/11/22 01:53:34;;;;;;;1.02;0.60;;;14.90;74.80;;;;;;6182627;23;45280;-68
2022/11/22 01:56:03;;;;;;;6.72;0.82;;;14.90;75.30;;;;;;6182525;23;45283;-69
2022/11/22 01:58:33;;;;;;;1.75;0.63;;;14.70;75.10;;;;;;6182092;23;45308;-68
2022/11/22 02:01:01;;;;;;;2.50;0.63;;;14.80;74.70;;;;;;6181769;23;45253;-68
2022/11/22 02:03:31;;;;;;;3.15;0.77;;;14.70;75.80;;;;;;6182913;23;45376;-69
2022/11/22 02:05:58;;;;;;;2.25;0.80;;;14.80;75.20;;;;;;6181869;23;45332;-69
2022/11/22 02:08:32;;;;;;;2.30;0.63;;;14.60;75.70;;;;;;6179379;22;46580;-69
2022/11/22 02:11:02;;;;;;;1.13;0.50;;;14.60;76.50;;;;;;6181998;23;45366;-69
2022/11/22 02:13:33;;;;;;;1.75;0.60;;;14.80;76.10;;;;;;6182832;23;45272;-69
2022/11/22 02:16:01;;;;;;;4.15;0.63;;;15.10;75.00;;;;;;6182679;23;45161;-69
2022/11/22 02:18:28;;;;;;;3.45;0.90;;;14.80;73.90;;;;;;6181393;23;46528;-68
2022/11/22 02:20:56;;;;;;;4.15;0.70;;;14.50;75.10;;;;;;6184496;23;45232;-69
2022/11/22 02:23:31;;;;;;;3.78;0.80;;;14.70;74.20;;;;;;6182220;23;45268;-69
2022/11/22 02:26:01;;;;;;;2.03;0.68;;;14.70;75.20;;;;;;6182463;23;45361;-68
2022/11/22 02:28:30;;;;;;;1.58;0.60;;;14.80;74.90;;;;;;6180682;23;45868;-69
2022/11/22 02:30:57;;;;;;;5.25;1.30;;;14.80;73.70;;;;;;6182168;23;45352;-69
2022/11/22 02:33:24;;;;;;;3.05;0.90;;;14.50;74.70;;;;;;6182543;23;45491;-68
2022/11/22 02:35:51;;;;;;;3.80;0.90;;;14.40;75.40;;;;;;6181637;23;45378;-68
2022/11/22 02:38:22;;;;;;;2.40;0.68;;;14.50;76.00;;;;;;6181673;23;47992;-69
2022/11/22 02:40:53;;;;;;;4.65;0.60;;;15.10;73.60;;;;;;6181699;23;45265;-68
2022/11/22 02:43:25;;;;;;;5.55;1.27;;;15.00;73.50;;;;;;6182920;23;45358;-70
2022/11/22 02:45:52;;;;;;;3.10;0.68;;;14.70;73.60;;;;;;6181710;23;45426;-69
2022/11/22 02:48:18;;;;;;;2.53;0.80;;;14.70;74.40;;;;;;6179389;23;45263;-68
2022/11/22 02:50:46;;;;;;;5.90;1.02;;;14.90;72.90;;;;;;6182179;23;45327;-69
2022/11/22 02:53:13;;;;;;;5.18;1.00;;;14.90;73.40;;;;;;6182110;23;45321;-68
2022/11/22 02:55:41;;;;;;;4.72;0.95;;;14.70;73.80;;;;;;6182297;23;45149;-68
2022/11/22 02:58:08;;;;;;;4.90;1.02;;;14.70;73.60;;;;;;6181426;23;46389;-68
2022/11/22 03:00:37;;;;;;;6.28;0.95;;;14.70;74.20;;;;;;6182065;23;46447;-69
2022/11/22 03:03:04;;;;;;;3.42;1.05;;;14.70;73.60;;;;;;6182455;23;45421;-70
2022/11/22 03:05:31;;;;;;;4.88;1.15;;;14.60;73.50;;;;;;6181699;23;45448;-68
2022/11/22 03:07:58;;;;;;;5.22;1.08;;;14.50;73.50;;;;;;6181658;23;45469;-69
2022/11/22 03:10:26;;;;;;;6.40;1.08;;;14.50;73.50;;;;;;6178949;23;45281;-69
2022/11/22 03:12:53;;;;;;;2.45;0.73;;;14.50;74.90;;;;;;6182628;23;45280;-68
2022/11/22 03:15:20;;;;;;;1.70;0.63;;;15.00;73.50;;;;;;6181762;23;45414;-68
2022/11/22 03:17:48;;;;;;;6.38;0.75;;;15.20;72.30;;;;;;6181294;23;45215;-68
2022/11/22 03:20:15;;;;;;;3.35;0.90;;;15.30;71.80;;;;;;6182040;23;45221;-68
2022/11/22 03:22:42;;;;;;;5.47;1.15;;;14.80;72.10;;;;;;6181903;23;45362;-69
2022/11/22 03:25:09;;;;;;;5.13;0.85;;;14.70;74.10;;;;;;6182111;23;45411;-69
2022/11/22 03:27:36;;;;;;;6.25;1.27;;;14.90;73.00;;;;;;6181027;23;47506;-69
2022/11/22 03:30:03;;;;;;;2.35;1.00;;;14.70;73.10;;;;;;6182364;23;45268;-69
2022/11/22 03:32:30;;;;;;;5.38;1.15;;;14.50;73.00;;;;;;6182148;23;45284;-69
2022/11/22 03:34:58;;;;;;;3.72;0.98;;;14.50;73.70;;;;;;6181868;23;45288;-68
2022/11/22 03:37:24;;;;;;;2.45;0.77;;;14.70;73.60;;;;;;6181444;23;46570;-69
2022/11/22 03:39:51;;;;;;;6.65;1.27;;;14.60;72.00;;;;;;6180677;23;45293;-68
2022/11/22 03:42:18;;;;;;;6.95;1.00;;;14.40;73.40;;;;;;6181714;23;45197;-68
2022/11/22 03:44:45;;;;;;;9.13;1.63;;;14.30;73.30;;;;;;6181312;23;45355;-69
2022/11/22 03:47:12;;;;;;;7.78;1.35;;;14.40;73.30;;;;;;6180481;23;45352;-69
2022/11/22 03:49:39;;;;;;;3.33;0.90;;;14.60;73.50;;;;;;6179064;23;45379;-69
2022/11/22 03:52:07;;;;;;;10.43;1.67;;;14.70;72.70;;;;;;6180453;23;45299;-68
2022/11/22 03:54:33;;;;;;;5.43;1.10;;;14.80;72.20;;;;;;6182495;23;45350;-68
2022/11/22 03:57:00;;;;;;;12.43;1.45;;;14.50;72.90;;;;;;6180935;23;46426;-69
2022/11/22 03:59:27;;;;;;;6.47;1.65;;;14.40;73.40;;;;;;6181654;23;45292;-68
2022/11/22 04:01:54;;;;;;;4.70;1.05;;;14.30;73.70;;;;;;6181754;23;45345;-69
2022/11/22 04:04:21;;;;;;;10.85;1.40;;;14.30;73.30;;;;;;6182004;23;45427;-68
2022/11/22 04:06:48;;;;;;;2.75;0.82;;;14.20;73.20;;;;;;6181483;23;47048;-69
2022/11/22 04:09:16;;;;;;;6.70;1.10;;;14.50;73.80;;;;;;6179725;23;45193;-68
2022/11/22 04:11:43;;;;;;;5.03;1.27;;;14.50;73.40;;;;;;6181897;23;45459;-70
2022/11/22 04:16:55;;;;;;;4.22;1.30;;;14.80;71.40;;;;;;6181492;23;45840;-69
2022/11/22 04:19:22;;;;;;;7.95;1.55;;;14.60;71.30;;;;;;6180543;23;46285;-68
2022/11/22 04:21:48;;;;;;;8.30;1.50;;;14.40;72.80;;;;;;6181346;23;45313;-69
2022/11/22 04:27:00;;;;;;;5.55;1.33;;;14.40;71.70;;;;;;6181057;23;45883;-69
2022/11/22 04:29:27;;;;;;;4.78;1.30;;;14.20;72.50;;;;;;6180749;23;45243;-68
2022/11/22 04:34:38;;;;;;;4.13;1.10;;;14.40;73.10;;;;;;6182043;23;45296;-69
2022/11/22 04:37:06;;;;;;;7.65;1.35;;;14.50;70.80;;;;;;6180066;23;46565;-70
2022/11/22 04:39:34;;;;;;;4.80;1.33;;;14.50;71.50;;;;;;6180235;23;45320;-70
2022/11/22 04:44:45;;;;;;;8.68;1.42;;;14.30;72.10;;;;;;6181401;23;45324;-68
2022/11/22 04:47:57;;;;;;;12.52;1.67;;;14.30;73.20;;;;;;6180638;23;46429;-68
2022/11/22 04:50:03;;;;;;;6.63;1.30;;;14.20;72.20;;;;;;6178350;23;45236;-68
2022/11/22 04:55:15;;;;;;;6.53;1.70;;;14.80;71.50;;;;;;6180911;23;45216;-69
2022/11/22 04:57:42;;;;;;;7.38;1.38;;;14.70;70.90;;;;;;6180617;23;47424;-68
2022/11/22 05:00:10;;;;;;;7.60;1.65;;;14.40;71.40;;;;;;6182763;23;45355;-67
2022/11/22 05:02:37;;;;;;;8.20;1.42;;;14.40;71.60;;;;;;6181091;23;45191;-69
2022/11/22 05:05:05;;;;;;;5.05;0.98;;;14.20;72.00;;;;;;6182422;23;45404;-68
2022/11/22 05:07:33;;;;;;;8.45;1.50;;;14.30;72.60;;;;;;6179784;23;45335;-69
2022/11/22 05:10:00;;;;;;;5.78;1.20;;;14.30;71.90;;;;;;6180071;23;45289;-68
2022/11/22 05:12:28;;;;;;;9.77;1.73;;;14.40;71.50;;;;;;6182083;23;45288;-69
2022/11/22 05:14:55;;;;;;;5.88;1.35;;;14.60;70.80;;;;;;6181892;23;45196;-68
2022/11/22 05:17:22;;;;;;;8.88;1.33;;;14.60;71.20;;;;;;6181946;23;45500;-68
2022/11/22 05:19:49;;;;;;;7.57;1.52;;;14.50;72.60;;;;;;6181500;23;45287;-69
2022/11/22 05:22:16;;;;;;;7.15;1.75;;;14.70;70.30;;;;;;6182981;23;45294;-68
2022/11/22 05:24:42;;;;;;;4.25;1.25;;;14.50;70.10;;;;;;6182277;23;45212;-69
2022/11/22 05:27:08;;;;;;;8.30;1.73;;;14.30;71.10;;;;;;6182255;23;48129;-69
2022/11/22 05:29:38;;;;;;;10.20;1.40;;;14.20;72.50;;;;;;6181634;23;45240;-68
2022/11/22 05:32:05;;;;;;;5.10;1.20;;;14.70;71.40;;;;;;6181992;23;45354;-69
2022/11/22 05:34:32;;;;;;;9.20;1.60;;;14.40;71.10;;;;;;6182873;23;45372;-68
2022/11/22 05:36:59;;;;;;;7.85;1.30;;;14.40;70.60;;;;;;6181862;23;45473;-69
2022/11/22 05:39:25;;;;;;;5.60;1.30;;;14.40;70.60;;;;;;6182235;23;45216;-68
2022/11/22 05:41:55;;;;;;;5.60;1.40;;;14.20;70.80;;;;;;6182043;23;45284;-68
2022/11/22 05:44:22;;;;;;;5.65;1.08;;;14.20;70.90;;;;;;6182891;23;45419;-68
2022/11/22 05:46:50;;;;;;;4.50;1.23;;;14.40;72.10;;;;;;6180072;23;47147;-68
2022/11/22 05:49:17;;;;;;;7.30;1.83;;;14.70;71.30;;;;;;6180199;23;45436;-68
2022/11/22 05:51:44;;;;;;;8.77;1.38;;;15.00;69.50;;;;;;6181912;23;45296;-68
2022/11/22 05:54:11;;;;;;;5.25;1.38;;;15.20;68.80;;;;;;6181912;23;45264;-69
2022/11/22 05:56:38;;;;;;;5.43;1.50;;;15.40;68.20;;;;;;6181931;23;46243;-68
2022/11/22 05:59:05;;;;;;;4.32;1.15;;;15.50;66.70;;;;;;6181645;23;45277;-68
2022/11/22 06:01:32;;;;;;;5.97;0.90;;;15.50;67.50;;;;;;6182341;23;45257;-69
2022/11/22 06:04:01;;;;;;;8.95;1.63;;;15.80;66.30;;;;;;6182734;23;45284;-68
2022/11/22 06:06:28;;;;;;;9.07;1.63;;;15.60;65.60;;;;;;6181491;23;46987;-69
2022/11/22 06:08:55;;;;;;;5.43;1.42;;;15.10;66.80;;;;;;6181036;23;45289;-69
2022/11/22 06:11:23;;;;;;;5.45;1.58;;;14.70;67.80;;;;;;6179504;23;45153;-69
2022/11/22 06:13:52;;;;;;;8.32;1.70;;;14.70;68.60;;;;;;6182050;23;45496;-69
2022/11/22 06:16:19;;;;;;;8.43;1.70;;;14.60;69.70;;;;;;6181462;23;45211;-69
2022/11/22 06:18:46;;;;;;;5.85;1.30;;;14.70;67.90;;;;;;6181885;23;45265;-69
2022/11/22 06:21:16;;;;;;;5.85;1.60;;;14.70;69.80;;;;;;6181565;23;45355;-69
2022/11/22 06:23:43;;;;;;;7.55;1.40;;;14.50;69.20;;;;;;6181864;23;45441;-69
2022/11/22 06:26:12;;;;;;;3.25;0.98;;;14.50;69.30;;;;;;6181273;23;46316;-69
2022/11/22 06:28:40;;;;;;;5.35;1.33;;;14.40;70.70;;;;;;6180615;23;45285;-68
2022/11/22 06:31:10;;;;;;;8.98;1.60;;;14.60;69.80;;;;;;6182698;23;45396;-69
2022/11/22 06:33:38;;;;;;;5.63;1.30;;;14.60;69.80;;;;;;6182022;23;45193;-69
2022/11/22 06:36:06;;;;;;;8.52;1.42;;;14.80;68.70;;;;;;6181345;23;46269;-68
2022/11/22 06:38:35;;;;;;;8.23;1.73;;;14.50;69.30;;;;;;6181635;23;45256;-69
2022/11/22 06:41:02;;;;;;;4.57;1.48;;;14.30;69.20;;;;;;6181176;23;45324;-69
2022/11/22 06:43:29;;;;;;;4.60;1.30;;;14.30;69.60;;;;;;6181182;23;45450;-68
2022/11/22 06:45:57;;;;;;;5.10;1.30;;;14.90;71.60;;;;;;6180449;23;45491;-67
2022/11/22 06:48:24;;;;;;;3.65;0.90;;;15.90;68.90;;;;;;6180248;23;45293;-66
2022/11/22 06:50:51;;;;;;;3.53;1.10;;;16.50;66.80;;;;;;6181017;23;45318;-68
2022/11/22 06:53:18;;;;;;;4.32;1.05;;;16.80;65.70;;;;;;6180884;23;45399;-68
2022/11/22 06:55:47;;;;;;;6.45;0.75;;;17.00;65.10;;;;;;6181484;23;46471;-68
2022/11/22 06:58:14;;;;;;;2.58;0.90;;;17.10;64.70;;;;;;6180222;23;45189;-68
2022/11/22 07:00:40;;;;;;;2.47;0.73;;;17.20;64.50;;;;;;6181172;23;45209;-67
2022/11/22 07:03:07;;;;;;;3.60;1.05;;;17.30;63.60;;;;;;6181354;23;45446;-68
2022/11/22 07:05:34;;;;;;;3.25;1.00;;;17.30;63.00;;;;;;6180846;23;45252;-68
2022/11/22 07:08:01;;;;;;;4.32;1.00;;;17.40;62.20;;;;;;6181404;23;45329;-69
2022/11/22 07:10:28;;;;;;;2.50;1.00;;;17.40;62.50;;;;;;6179040;23;45324;-68
2022/11/22 07:12:56;;;;;;;4.05;1.30;;;17.30;62.10;;;;;;6181507;23;45377;-68
2022/11/22 07:15:23;;;;;;;2.22;0.70;;;17.40;61.50;;;;;;6180418;23;45312;-68
2022/11/22 07:17:50;;;;;;;3.67;1.02;;;17.30;61.00;;;;;;6180936;23;45266;-68
2022/11/22 07:20:16;;;;;;;3.25;1.10;;;17.30;60.80;;;;;;6180818;23;45295;-69
2022/11/22 07:22:43;;;;;;;3.13;1.17;;;17.40;60.50;;;;;;6179231;23;45439;-68
2022/11/22 07:25:10;;;;;;;9.10;1.08;;;17.40;60.20;;;;;;6180879;23;45694;-68
2022/11/22 07:27:37;;;;;;;3.10;1.00;;;17.40;60.00;;;;;;6180768;23;45254;-68
2022/11/22 07:30:07;;;;;;;3.35;0.98;;;17.40;60.00;;;;;;6181383;23;45328;-68
2022/11/22 07:32:34;;;;;;;4.32;1.20;;;17.40;60.00;;;;;;6181930;23;45180;-68
2022/11/22 07:35:01;;;;;;;3.58;1.13;;;17.40;60.40;;;;;;6181382;23;45482;-68
2022/11/22 07:37:27;;;;;;;2.97;1.10;;;17.40;60.40;;;;;;6181911;23;45219;-69
2022/11/22 07:39:54;;;;;;;4.68;1.20;;;17.50;60.70;;;;;;6180701;23;45448;-68
2022/11/22 07:42:21;;;;;;;4.82;1.13;;;17.50;60.50;;;;;;6180907;23;45374;-69
2022/11/22 07:44:48;;;;;;;2.92;1.10;;;17.50;60.80;;;;;;6181279;23;45445;-68
2022/11/22 07:47:16;;;;;;;4.50;0.93;;;17.50;61.00;;;;;;6180362;23;45690;-68
2022/11/22 07:49:43;;;;;;;9.40;1.60;;;17.50;61.10;;;;;;6179001;23;45354;-69
2022/11/22 07:52:10;;;;;;;10.80;1.60;;;17.50;61.30;;;;;;6180173;23;45352;-69
2022/11/22 07:54:37;;;;;;;5.07;1.10;;;17.50;61.30;;;;;;6182227;23;46794;-69
2022/11/22 07:57:04;;;;;;;1.88;0.80;;;17.50;61.30;;;;;;6181773;23;45465;-69
2022/11/22 07:59:30;;;;;;;4.45;1.10;;;17.60;61.30;;;;;;6180618;23;45214;-69
2022/11/22 08:01:57;;;;;;;3.00;0.90;;;17.60;61.40;;;;;;6181889;23;45423;-68
2022/11/22 08:04:26;;;;;;;2.65;0.90;;;17.60;61.40;;;;;;6181227;23;47518;-68
2022/11/22 08:06:53;;;;;;;4.07;0.80;;;17.60;61.10;;;;;;6180760;23;45498;-69
2022/11/22 08:09:19;;;;;;;3.83;1.08;;;17.60;61.00;;;;;;6180689;23;45300;-69
2022/11/22 08:11:46;;;;;;;3.55;1.55;;;17.70;60.90;;;;;;6181247;23;45238;-69
2022/11/22 08:14:13;;;;;;;3.83;0.98;;;17.70;60.80;;;;;;6181775;23;47131;-69
2022/11/22 08:16:40;;;;;;;2.85;0.82;;;17.70;60.80;;;;;;6179619;23;45336;-69
2022/11/22 08:19:07;;;;;;;2.45;0.90;;;17.60;60.70;;;;;;6180331;23;45332;-68
2022/11/22 08:21:36;;;;;;;1.85;0.68;;;17.70;60.80;;;;;;6181729;23;45471;-68
2022/11/22 08:24:03;;;;;;;4.07;1.10;;;17.70;60.80;;;;;;6181038;23;46298;-69
2022/11/22 08:26:31;;;;;;;4.38;1.23;;;17.70;60.80;;;;;;6181017;23;45303;-68
2022/11/22 08:28:58;;;;;;;5.25;0.95;;;17.70;61.90;;;;;;6180521;23;45290;-68
2022/11/22 08:31:26;;;;;;;2.47;0.75;;;17.70;60.80;;;;;;6180579;23;45344;-69
2022/11/22 08:33:53;;;;;;;1.60;0.60;;;17.70;60.80;;;;;;6181115;23;48066;-69
2022/11/22 08:36:20;;;;;;;1.67;0.60;;;17.70;60.90;;;;;;6181399;23;45363;-68
2022/11/22 08:38:48;;;;;;;1.38;0.63;;;17.70;61.00;;;;;;6181800;23;45401;-69
2022/11/22 08:41:15;;;;;;;3.03;1.00;;;17.70;61.00;;;;;;6182178;23;45339;-69
2022/11/22 08:43:42;;;;;;;2.05;0.82;;;17.70;61.00;;;;;;6181274;23;47091;-68
2022/11/22 08:46:09;;;;;;;2.30;0.98;;;17.70;61.10;;;;;;6182128;23;45466;-69
2022/11/22 08:48:38;;;;;;;4.28;0.88;;;17.70;61.10;;;;;;6180585;23;45355;-69
2022/11/22 08:51:07;;;;;;;2.33;0.90;;;17.80;61.20;;;;;;6181083;23;45402;-70
2022/11/22 08:53:36;;;;;;;2.67;0.70;;;17.80;61.20;;;;;;6181855;23;45474;-69
2022/11/22 08:56:08;;;;;;;4.50;0.90;;;17.80;61.00;;;;;;6181104;23;45460;-69
2022/11/22 08:58:35;;;;;;;2.80;0.70;;;17.80;61.00;;;;;;6182502;23;45223;-69
2022/11/22 09:01:05;;;;;;;5.93;0.88;;;17.80;61.00;;;;;;6181089;23;45450;-68
2022/11/22 09:03:33;;;;;;;2.42;0.82;;;17.80;61.00;;;;;;6182164;23;46567;-68
2022/11/22 09:06:02;;;;;;;2.75;0.85;;;17.80;60.80;;;;;;6182255;23;45258;-68
2022/11/22 09:08:29;;;;;;;1.92;0.68;;;17.80;60.70;;;;;;6181050;23;45317;-69
2022/11/22 09:10:59;;;;;;;3.00;0.77;;;17.90;60.70;;;;;;6182640;23;45254;-68
2022/11/22 09:13:27;;;;;;;2.35;0.90;;;17.90;60.70;;;;;;6182090;23;47039;-69
2022/11/22 09:15:54;;;;;;;1.50;0.60;;;17.90;60.70;;;;;;6182131;23;45309;-69
2022/11/22 09:18:21;;;;;;;2.08;0.70;;;17.90;60.70;;;;;;6182318;23;45419;-69
2022/11/22 09:20:48;;;;;;;1.23;0.70;;;17.90;60.80;;;;;;6180308;23;45268;-68
2022/11/22 09:23:15;;;;;;;2.03;0.80;;;17.90;60.80;;;;;;6181916;23;48480;-69
2022/11/22 09:25:42;;;;;;;2.53;0.80;;;17.90;60.90;;;;;;6181793;23;45347;-68
2022/11/22 09:28:09;;;;;;;2.35;0.98;;;17.90;61.30;;;;;;6182740;23;45318;-68
2022/11/22 09:30:37;;;;;;;3.35;0.80;;;18.10;61.20;;;;;;6182304;23;45257;-68
2022/11/22 09:33:04;;;;;;;3.72;0.93;;;18.00;61.00;;;;;;6181063;23;45462;-69
2022/11/22 09:35:30;;;;;;;3.20;1.00;;;18.00;61.20;;;;;;6181337;23;45322;-69
2022/11/22 09:37:57;;;;;;;2.67;0.90;;;18.00;61.10;;;;;;6182171;23;45282;-69
2022/11/22 09:40:24;;;;;;;2.92;0.90;;;18.00;61.20;;;;;;6181391;23;45408;-70
2022/11/22 09:43:06;;;;;;;2.50;0.77;;;18.00;61.10;;;;;;6181677;23;46253;-68
2022/11/22 09:46:00;;;;;;;1.83;0.85;;;18.00;61.10;;;;;;6181516;23;45485;-68
2022/11/22 09:48:42;;;;;;;2.22;0.85;;;18.10;61.20;;;;;;6178982;23;45332;-69
2022/11/22 09:51:13;;;;;;;1.85;0.80;;;18.00;61.20;;;;;;6180778;23;45296;-69
2022/11/22 09:53:45;;;;;;;2.75;0.77;;;18.00;61.20;;;;;;6182505;23;45322;-69
2022/11/22 09:56:15;;;;;;;1.48;0.70;;;18.00;61.20;;;;;;6181295;23;45331;-69
2022/11/22 09:58:46;;;;;;;2.05;0.68;;;18.00;61.40;;;;;;6181275;23;45304;-69
2022/11/22 10:01:18;;;;;;;2.83;0.95;;;18.00;61.30;;;;;;6181847;23;45389;-69
2022/11/22 10:03:49;;;;;;;2.40;0.70;;;18.00;61.10;;;;;;6181473;23;45426;-69
2022/11/22 10:06:24;;;;;;;1.35;0.52;;;18.00;61.10;;;;;;6181828;23;45244;-69
2022/11/22 10:09:12;;;;;;;0.70;0.30;;;18.00;60.90;;;;;;6181167;23;45209;-70
2022/11/22 10:11:45;;;;;;;1.10;0.60;;;18.10;60.90;;;;;;6182634;23;45228;-69
2022/11/22 10:14:27;;;;;;;3.83;0.95;;;18.10;60.90;;;;;;6181889;23;45415;-68
2022/11/22 10:16:59;;;;;;;2.17;0.88;;;18.10;60.80;;;;;;6180980;23;45350;-68
2022/11/22 10:19:34;;;;;;;1.13;0.50;;;18.10;61.00;;;;;;6181645;23;45350;-69
2022/11/22 10:22:01;;;;;;;1.88;0.68;;;18.10;61.10;;;;;;6180235;23;45598;-69
2022/11/22 10:24:29;;;;;;;2.85;0.90;;;18.10;61.30;;;;;;6181342;23;45236;-68
2022/11/22 10:26:59;;;;;;;0.95;0.50;;;18.10;61.30;;;;;;6180953;23;45450;-68
2022/11/22 10:29:32;;;;;;;1.70;0.70;;;18.00;61.20;;;;;;6181147;23;45276;-69
2022/11/22 10:32:09;;;;;;;1.52;0.65;;;18.00;61.30;;;;;;6182273;23;45228;-69
2022/11/22 10:34:46;;;;;;;1.55;0.77;;;18.10;61.40;;;;;;6181613;23;46248;-69
2022/11/22 10:37:21;;;;;;;1.08;0.57;;;18.00;61.50;;;;;;6182056;23;45434;-68
2022/11/22 10:39:59;;;;;;;1.58;0.55;;;18.10;61.50;;;;;;6181442;23;45256;-68
2022/11/22 10:42:44;;;;;;;2.10;0.60;;;18.00;61.30;;;;;;6182262;23;45197;-68
2022/11/22 10:45:17;;;;;;;1.13;0.43;;;18.10;61.50;;;;;;6182404;23;45266;-68
2022/11/22 10:48:01;;;;;;;1.27;0.50;;;18.00;61.40;;;;;;6181547;23;45440;-68
2022/11/22 10:50:37;;;;;;;1.42;0.60;;;18.10;61.50;;;;;;6181582;23;45264;-70
2022/11/22 10:53:13;;;;;;;1.17;0.60;;;18.00;61.50;;;;;;6181523;23;45594;-69
2022/11/22 10:55:50;;;;;;;4.93;0.80;;;18.10;61.60;;;;;;6181245;23;47098;-68
2022/11/22 10:58:26;;;;;;;1.48;0.57;;;18.00;63.00;;;;;;6180716;23;45880;-67
2022/11/22 11:00:59;;;;;;;5.05;1.35;;;18.00;63.90;;;;;;6181971;23;45318;-68
2022/11/22 11:03:31;;;;;;;1.73;0.70;;;18.10;63.70;;;;;;6181075;23;45528;-68
2022/11/22 11:06:04;;;;;;;2.55;0.80;;;18.10;63.60;;;;;;6180256;23;46262;-67
2022/11/22 11:08:38;;;;;;;1.33;0.60;;;18.20;63.80;;;;;;6181809;22;45318;-67
2022/11/22 11:11:05;;;;;;;2.05;0.70;;;18.20;63.70;;;;;;6181045;23;45415;-67
2022/11/22 11:13:35;;;;;;;1.58;0.60;;;18.20;64.00;;;;;;6182534;23;45265;-67
2022/11/22 11:16:08;;;;;;;1.20;0.70;;;18.20;64.00;;;;;;6181538;23;47054;-68
2022/11/22 11:18:41;;;;;;;1.52;0.70;;;18.20;64.10;;;;;;6181026;23;45546;-68
2022/11/22 11:21:12;;;;;;;1.25;0.60;;;18.20;64.30;;;;;;6180850;23;45437;-68
2022/11/22 11:23:39;;;;;;;2.08;0.60;;;18.20;64.70;;;;;;6182005;23;45345;-67
2022/11/22 11:26:21;;;;;;;1.65;0.63;;;18.20;64.80;;;;;;6178787;23;48014;-67
2022/11/22 11:28:49;;;;;;;2.00;0.77;;;18.20;65.10;;;;;;6179976;23;45205;-68
2022/11/22 11:31:17;;;;;;;1.60;0.52;;;18.20;65.40;;;;;;6181954;23;45161;-68
2022/11/22 11:33:46;;;;;;;1.98;0.38;;;18.30;65.70;;;;;;6182235;23;45251;-68
2022/11/22 11:36:17;;;;;;;0.90;0.50;;;18.30;65.90;;;;;;6180873;23;48126;-68
2022/11/22 11:38:55;;;;;;;1.92;0.60;;;18.30;66.10;;;;;;6179311;23;45472;-68
2022/11/22 11:41:25;;;;;;;0.90;0.30;;;18.30;66.10;;;;;;6178587;23;45192;-68
2022/11/22 11:43:53;;;;;;;2.40;0.65;;;18.30;66.40;;;;;;6181378;23;45494;-68
2022/11/22 11:46:22;;;;;;;1.77;0.60;;;18.30;66.40;;;;;;6181507;23;47244;-68
2022/11/22 11:48:51;;;;;;;1.17;0.40;;;18.30;66.50;;;;;;6178831;23;45316;-67
2022/11/22 11:51:22;;;;;;;3.20;0.50;;;18.30;66.60;;;;;;6182172;23;45267;-67
2022/11/22 11:54:00;;;;;;;2.30;0.57;;;18.30;66.80;;;;;;6181211;23;45403;-67
2022/11/22 11:56:48;;;;;;;1.63;0.50;;;18.30;67.20;;;;;;6181522;23;45268;-68
2022/11/22 11:59:18;;;;;;;1.23;0.32;;;18.30;67.30;;;;;;6180548;23;45418;-68
2022/11/22 12:01:55;;;;;;;1.13;0.60;;;18.30;67.50;;;;;;6181145;23;45269;-67
2022/11/22 12:04:26;;;;;;;1.73;0.60;;;18.20;67.50;;;;;;6182210;23;45415;-68
2022/11/22 12:06:58;;;;;;;1.60;0.60;;;18.30;67.70;;;;;;6179472;23;45237;-67
2022/11/22 12:09:30;;;;;;;1.45;0.75;;;18.30;67.90;;;;;;6180445;23;45433;-67
2022/11/22 12:12:02;;;;;;;2.13;0.70;;;18.30;67.80;;;;;;6178836;23;45482;-67
2022/11/22 12:14:29;;;;;;;2.15;0.60;;;18.30;67.70;;;;;;6180648;23;45213;-68
2022/11/22 12:17:02;;;;;;;1.55;0.73;;;18.30;67.80;;;;;;6180507;23;45470;-67
2022/11/22 12:19:40;;;;;;;1.20;0.57;;;18.40;67.80;;;;;;6178562;23;45293;-68
2022/11/22 12:22:16;;;;;;;3.70;0.98;;;18.40;67.50;;;;;;6179521;23;45447;-69
2022/11/22 12:24:49;;;;;;;8.40;1.50;;;18.40;69.60;;;;;;6181257;23;45399;-68
2022/11/22 12:27:16;;;;;;;7.22;1.05;;;18.50;68.00;;;;;;6180458;23;47135;-68
2022/11/22 12:29:43;;;;;;;2.88;0.85;;;18.50;67.40;;;;;;6179819;23;45453;-69
2022/11/22 12:32:15;;;;;;;1.00;0.55;;;18.50;67.40;;;;;;6180757;23;45283;-68
2022/11/22 12:34:51;;;;;;;4.68;1.08;;;18.50;66.80;;;;;;6181274;23;45462;-69
2022/11/22 12:37:21;;;;;;;4.07;1.13;;;18.50;67.00;;;;;;6180836;23;45329;-68
2022/11/22 12:39:51;;;;;;;2.17;0.70;;;18.50;66.80;;;;;;6180917;23;45318;-69
2022/11/22 12:42:21;;;;;;;4.10;0.50;;;18.40;66.60;;;;;;6180717;23;45391;-68
2022/11/22 12:44:53;;;;;;;0.88;0.38;;;18.40;66.60;;;;;;6181571;23;45229;-70
2022/11/22 12:47:24;;;;;;;2.85;0.60;;;18.40;66.70;;;;;;6179029;23;45370;-68
2022/11/22 12:49:56;;;;;;;3.50;0.63;;;18.40;66.80;;;;;;6180093;23;45331;-69
2022/11/22 12:52:28;;;;;;;1.90;0.45;;;18.40;66.60;;;;;;6180504;23;45249;-69
2022/11/22 12:55:02;;;;;;;3.20;0.28;;;18.40;67.10;;;;;;6179324;23;45485;-68
2022/11/22 12:57:38;;;;;;;1.55;0.43;;;18.30;67.20;;;;;;6178971;23;47265;-69
2022/11/22 13:00:12;;;;;;;2.38;0.80;;;18.30;67.10;;;;;;6176612;23;45391;-69
2022/11/22 13:02:45;;;;;;;2.05;0.40;;;18.30;67.00;;;;;;6179341;23;45331;-69
2022/11/22 13:05:17;;;;;;;0.88;0.50;;;18.30;67.10;;;;;;6179016;23;45628;-68
2022/11/22 13:07:53;;;;;;;1.73;0.63;;;18.30;67.00;;;;;;6178239;23;46268;-68